createdAt,value
2022-12-28T00:03:51.298Z,2.85
2022-12-28T00:08:57.183Z,2.74
2022-12-28T00:14:00.915Z,2.60
2022-12-28T00:19:11.121Z,2.55
2022-12-28T00:24:20.072Z,2.43
2022-12-28T00:29:21.758Z,2.43
2022-12-28T00:34:23.369Z,2.43
2022-12-28T00:39:25.021Z,2.41
2022-12-28T00:44:27.847Z,2.28
2022-12-28T00:49:29.447Z,2.17
2022-12-28T00:54:31.072Z,2.10
2022-12-28T00:59:32.765Z,2.06
2022-12-28T01:04:34.547Z,2.13
2022-12-28T01:09:36.144Z,2.23
2022-12-28T01:14:37.730Z,2.22
2022-12-28T01:19:39.418Z,2.19
2022-12-28T01:24:41.026Z,2.20
2022-12-28T01:29:42.654Z,2.17
2022-12-28T01:34:44.788Z,2.17
2022-12-28T01:39:47.197Z,2.13
2022-12-28T01:44:51.786Z,1.89
2022-12-28T01:50:11.704Z,1.76
2022-12-28T01:55:36.773Z,1.54
2022-12-28T02:00:40.058Z,1.33
2022-12-28T02:05:46.061Z,1.61
2022-12-28T02:10:48.115Z,1.76
2022-12-28T02:15:51.208Z,1.89
2022-12-28T02:21:08.513Z,2.13
2022-12-28T02:26:32.218Z,2.23
2022-12-28T02:31:44.304Z,2.16
2022-12-28T02:36:52.684Z,2.39
2022-12-28T02:41:56.121Z,2.74
2022-12-28T02:47:17.303Z,2.71
2022-12-28T02:52:37.616Z,2.67
2022-12-28T02:57:54.597Z,2.64
2022-12-28T03:03:21.489Z,2.71
2022-12-28T03:08:44.057Z,2.76
2022-12-28T03:13:59.666Z,2.70
2022-12-28T03:19:26.363Z,2.64
2022-12-28T03:24:53.551Z,2.67
2022-12-28T03:30:25.511Z,2.67
2022-12-28T03:36:10.198Z,2.69
2022-12-28T03:41:30.527Z,2.72
2022-12-28T03:47:00.447Z,2.77
2022-12-28T03:52:03.327Z,2.84
2022-12-28T03:57:05.225Z,2.85
2022-12-28T04:02:12.046Z,2.83
2022-12-28T04:07:14.095Z,2.84
2022-12-28T04:12:15.927Z,2.85
2022-12-28T04:17:45.047Z,2.97
2022-12-28T04:22:46.693Z,2.90
2022-12-28T04:27:49.040Z,2.84
2022-12-28T04:33:10.582Z,2.83
2022-12-28T04:38:13.547Z,2.91
2022-12-28T04:43:15.158Z,2.94
2022-12-28T04:48:16.711Z,3.02
2022-12-28T04:53:18.454Z,3.01
2022-12-28T04:58:20.014Z,3.08
2022-12-28T05:03:21.580Z,3.12
2022-12-28T05:08:23.160Z,3.21
2022-12-28T05:13:24.726Z,3.32
2022-12-28T05:18:26.297Z,3.36
2022-12-28T05:23:32.393Z,3.31
2022-12-28T05:28:34.140Z,3.28
2022-12-28T05:33:36.715Z,3.28
2022-12-28T05:38:38.558Z,3.26
2022-12-28T05:43:40.429Z,3.29
2022-12-28T05:48:42.893Z,3.30
2022-12-28T05:53:44.646Z,3.30
2022-12-28T05:58:51.905Z,3.35
2022-12-28T06:03:59.345Z,3.42
2022-12-28T06:09:01.745Z,3.51
2022-12-28T06:14:05.738Z,3.63
2022-12-28T06:19:09.706Z,3.75
2022-12-28T06:24:13.779Z,3.77
2022-12-28T06:29:15.651Z,3.72
2022-12-28T06:34:17.489Z,3.72
2022-12-28T06:39:19.148Z,3.76
2022-12-28T06:44:20.727Z,3.94
2022-12-28T06:49:22.346Z,3.96
2022-12-28T06:54:24.173Z,4.07
2022-12-28T06:59:25.757Z,4.20
2022-12-28T07:04:27.321Z,4.35
2022-12-28T07:09:28.908Z,4.49
2022-12-28T07:14:32.259Z,4.55
2022-12-28T07:19:34.059Z,4.59
2022-12-28T07:24:35.838Z,4.55
2022-12-28T07:29:37.435Z,4.60
2022-12-28T07:34:39.011Z,4.70
2022-12-28T07:39:40.611Z,4.79
2022-12-28T07:44:48.639Z,4.81
2022-12-28T07:49:50.600Z,4.89
2022-12-28T07:54:52.175Z,4.90
2022-12-28T07:59:53.750Z,4.92
2022-12-28T08:04:55.321Z,4.95
2022-12-28T08:09:56.897Z,4.98
2022-12-28T08:15:01.150Z,5.09
2022-12-28T08:20:02.830Z,5.28
2022-12-28T08:25:04.687Z,5.37
2022-12-28T08:30:07.768Z,5.51
2022-12-28T08:35:09.430Z,5.74
2022-12-28T08:40:11.666Z,5.91
2022-12-28T08:45:13.330Z,6.04
2022-12-28T08:50:19.542Z,6.20
2022-12-28T08:55:21.542Z,6.30
2022-12-28T09:00:23.204Z,6.31
2022-12-28T09:05:24.843Z,6.33
2022-12-28T09:10:26.558Z,6.35
2022-12-28T09:15:28.185Z,6.50
2022-12-28T09:20:30.450Z,6.51
2022-12-28T09:25:32.034Z,6.54
2022-12-28T09:30:33.667Z,6.60
2022-12-28T09:35:35.243Z,6.65
2022-12-28T09:40:37.930Z,6.58
2022-12-28T09:45:42.488Z,6.61
2022-12-28T09:50:44.271Z,6.69
2022-12-28T09:55:58.458Z,6.64
2022-12-28T10:01:02.912Z,6.55
2022-12-28T10:06:12.146Z,6.58
2022-12-28T10:11:18.767Z,6.64
2022-12-28T10:16:21.226Z,6.56
2022-12-28T10:21:31.921Z,6.53
2022-12-28T10:26:35.447Z,6.62
2022-12-28T10:31:39.923Z,6.91
2022-12-28T10:36:42.026Z,6.97
2022-12-28T10:41:45.485Z,6.95
2022-12-28T10:46:55.616Z,7.14
2022-12-28T10:52:06.561Z,7.28
2022-12-28T10:57:20.657Z,7.84
2022-12-28T11:02:28.145Z,7.58
2022-12-28T11:07:33.500Z,7.44
2022-12-28T11:12:43.241Z,7.44
2022-12-28T11:18:10.619Z,7.46
2022-12-28T11:23:24.399Z,7.47
2022-12-28T11:28:26.031Z,7.34
2022-12-28T11:33:40.795Z,7.12
2022-12-28T11:38:47.732Z,7.19
2022-12-28T11:43:54.169Z,7.19
2022-12-28T11:49:05.173Z,7.29
2022-12-28T11:54:35.935Z,7.31
2022-12-28T11:59:37.627Z,7.35
2022-12-28T12:04:42.135Z,7.31
2022-12-28T12:09:47.729Z,7.42
2022-12-28T12:14:56.529Z,7.71
2022-12-28T12:20:02.981Z,8.38
2022-12-28T12:25:15.148Z,8.60
2022-12-28T12:30:19.270Z,8.83
2022-12-28T12:35:24.691Z,8.01
2022-12-28T12:40:48.281Z,7.51
2022-12-28T12:46:31.201Z,7.14
2022-12-28T12:51:36.819Z,7.07
2022-12-28T12:56:38.414Z,7.03
2022-12-28T13:02:04.963Z,7.18
2022-12-28T13:07:16.511Z,7.46
2022-12-28T13:12:20.103Z,7.38
2022-12-28T13:17:22.899Z,7.27
2022-12-28T13:22:32.612Z,7.32
2022-12-28T13:27:36.096Z,7.25
2022-12-28T13:32:38.727Z,7.20
2022-12-28T13:37:40.513Z,7.24
2022-12-28T13:43:00.780Z,7.34
2022-12-28T13:48:04.102Z,7.43
2022-12-28T13:53:12.068Z,7.31
2022-12-28T13:58:36.439Z,7.29
2022-12-28T14:03:42.322Z,7.17
2022-12-28T14:08:49.023Z,7.20
2022-12-28T14:13:51.401Z,7.24
2022-12-28T14:18:53.727Z,7.20
2022-12-28T14:24:07.025Z,7.23
2022-12-28T14:29:18.144Z,7.31
2022-12-28T14:34:31.553Z,7.26
2022-12-28T14:39:45.376Z,7.16
2022-12-28T14:44:52.506Z,7.14
2022-12-28T14:50:00.477Z,7.13
2022-12-28T14:55:45.332Z,7.11
2022-12-28T15:01:03.009Z,7.14
2022-12-28T15:06:04.926Z,7.14
2022-12-28T15:11:09.046Z,7.18
2022-12-28T15:16:13.240Z,7.19
2022-12-28T15:21:23.567Z,7.22
2022-12-28T15:26:27.486Z,7.27
2022-12-28T15:31:29.177Z,7.28
2022-12-28T15:36:30.870Z,7.29
2022-12-28T15:41:47.649Z,7.32
2022-12-28T15:46:50.488Z,7.34
2022-12-28T15:51:52.121Z,7.35
2022-12-28T15:56:55.651Z,7.43
2022-12-28T16:01:57.514Z,7.40
2022-12-28T16:06:59.321Z,7.38
2022-12-28T16:12:01.080Z,7.45
2022-12-28T16:17:02.688Z,7.47
2022-12-28T16:22:04.308Z,7.48
2022-12-28T16:27:05.945Z,7.45
2022-12-28T16:32:07.622Z,7.44
2022-12-28T16:37:10.283Z,7.34
2022-12-28T16:42:12.039Z,7.32
2022-12-28T16:47:13.830Z,7.18
2022-12-28T16:52:15.703Z,7.38
2022-12-28T16:57:17.478Z,7.32
2022-12-28T17:02:19.527Z,7.41
2022-12-28T17:07:21.481Z,7.45
2022-12-28T17:12:23.255Z,7.44
2022-12-28T17:17:25.018Z,7.42
2022-12-28T17:22:27.487Z,7.41
2022-12-28T17:27:29.353Z,7.43
2022-12-28T17:32:31.240Z,7.46
2022-12-28T17:37:33.028Z,7.45
2022-12-28T17:42:35.291Z,7.47
2022-12-28T17:47:37.093Z,7.54
2022-12-28T17:52:40.206Z,7.51
2022-12-28T17:57:42.046Z,7.46
2022-12-28T18:02:47.161Z,7.46
2022-12-28T18:07:49.040Z,7.51
2022-12-28T18:12:50.886Z,7.47
2022-12-28T18:17:52.661Z,7.47
2022-12-28T18:22:54.439Z,7.46
2022-12-28T18:27:56.405Z,7.41
2022-12-28T18:32:58.211Z,7.36
2022-12-28T18:37:59.992Z,7.34
2022-12-28T18:43:01.785Z,7.28
2022-12-28T18:48:03.757Z,7.29
2022-12-28T18:53:05.531Z,7.11
2022-12-28T18:58:07.343Z,7.12
2022-12-28T19:03:09.258Z,7.06
2022-12-28T19:08:11.216Z,6.98
2022-12-28T19:13:12.971Z,6.97
2022-12-28T19:18:14.934Z,6.91
2022-12-28T19:23:16.708Z,6.90
2022-12-28T19:28:18.509Z,6.97
2022-12-28T19:33:20.313Z,6.96
2022-12-28T19:38:22.251Z,7.05
2022-12-28T19:43:24.008Z,7.10
2022-12-28T19:48:25.802Z,7.12
2022-12-28T19:53:28.690Z,7.07
2022-12-28T19:58:33.322Z,7.18
2022-12-28T20:03:35.628Z,7.09
2022-12-28T20:08:38.602Z,7.06
2022-12-28T20:13:40.453Z,7.00
2022-12-28T20:18:49.477Z,7.09
2022-12-28T20:23:53.056Z,7.21
2022-12-28T20:28:59.131Z,7.33
2022-12-28T20:34:01.735Z,7.45
2022-12-28T20:39:03.852Z,7.56
2022-12-28T20:44:12.056Z,7.62
2022-12-28T20:49:14.083Z,7.67
2022-12-28T20:54:16.183Z,7.65
2022-12-28T20:59:17.952Z,7.69
2022-12-28T21:04:19.800Z,7.73
2022-12-28T21:09:22.284Z,7.78
2022-12-28T21:14:24.177Z,7.77
2022-12-28T21:19:25.968Z,7.64
2022-12-28T21:24:27.787Z,7.60
2022-12-28T21:29:31.095Z,7.61
2022-12-28T21:34:32.931Z,7.57
2022-12-28T21:39:34.700Z,7.44
2022-12-28T21:44:36.550Z,7.45
2022-12-28T21:49:38.333Z,7.52
2022-12-28T21:54:40.614Z,7.47
2022-12-28T21:59:43.147Z,7.42
2022-12-28T22:05:03.718Z,7.32
2022-12-28T22:10:24.482Z,7.30
2022-12-28T22:15:45.202Z,7.20
2022-12-28T22:20:47.625Z,7.14
2022-12-28T22:25:50.649Z,7.04
2022-12-28T22:30:52.405Z,7.06
2022-12-28T22:35:54.322Z,7.01
2022-12-28T22:40:59.633Z,7.04
2022-12-28T22:46:11.722Z,7.10
2022-12-28T22:51:15.152Z,7.14
2022-12-28T22:56:20.042Z,7.23
2022-12-28T23:01:21.802Z,7.28
2022-12-28T23:06:23.505Z,7.35
2022-12-28T23:11:37.738Z,7.44
2022-12-28T23:16:39.412Z,7.50
2022-12-28T23:21:59.592Z,7.57
2022-12-28T23:27:19.951Z,7.48
2022-12-28T23:32:21.557Z,7.59
2022-12-28T23:37:23.221Z,7.64
2022-12-28T23:42:24.858Z,7.70
2022-12-28T23:47:26.546Z,7.75
2022-12-28T23:52:28.623Z,7.84
2022-12-28T23:57:30.225Z,7.90
